UTA357 UUWW-UWWW
Flight info
| Callsign | UTA357 |
|---|---|
| Flight time | 1h 17m |
| Altitude | 37000 |
| Route | TOGMO3B TOGMO M56 ABAGI T794 RUBEK RUBEK2F |
| Aircraft | B738/M-SDE2E3FGHIRWXY/LB1 |
Departure
| Time | 2025-10-06 09:31 |
|---|---|
| Airport | Vnukovo International Airport (UUWW) |
Arrival
| Time | 2025-10-06 10:48 |
|---|---|
| Airport | Kurumoch International Airport (UWWW) |
| Time | Latitude | Longitude | Altitude | Speed | Heading |
|---|---|---|---|---|---|
| 2025-10-06 09:01 | 55.60221 | 37.28452 | 673 ft | 0 kts | 310° |
| 2025-10-06 09:14 | 55.60219 | 37.28458 | 673 ft | 2 kts | 312° |
| 2025-10-06 09:15 | 55.60190 | 37.28515 | 674 ft | 2 kts | 311° |
| 2025-10-06 09:15 | 55.60175 | 37.28548 | 674 ft | 2 kts | 305° |
| 2025-10-06 09:16 | 55.60170 | 37.28572 | 674 ft | 2 kts | 274° |
| 2025-10-06 09:16 | 55.60183 | 37.28624 | 672 ft | 1 kts | 224° |
| 2025-10-06 09:19 | 55.60161 | 37.28587 | 673 ft | 5 kts | 224° |
| 2025-10-06 09:20 | 55.60072 | 37.28318 | 680 ft | 7 kts | 265° |
| 2025-10-06 09:20 | 55.60068 | 37.28209 | 679 ft | 10 kts | 266° |
| 2025-10-06 09:21 | 55.60071 | 37.27969 | 672 ft | 11 kts | 285° |
| 2025-10-06 09:21 | 55.59960 | 37.27664 | 667 ft | 14 kts | 231° |
| 2025-10-06 09:22 | 55.59830 | 37.27402 | 667 ft | 12 kts | 225° |
| 2025-10-06 09:22 | 55.59770 | 37.27296 | 667 ft | 11 kts | 225° |
| 2025-10-06 09:23 | 55.59656 | 37.27088 | 665 ft | 12 kts | 226° |
| 2025-10-06 09:23 | 55.59535 | 37.26859 | 662 ft | 13 kts | 234° |
| 2025-10-06 09:24 | 55.59457 | 37.26552 | 659 ft | 14 kts | 248° |
| 2025-10-06 09:24 | 55.59333 | 37.26015 | 652 ft | 14 kts | 248° |
| 2025-10-06 09:25 | 55.59252 | 37.25676 | 649 ft | 15 kts | 246° |
| 2025-10-06 09:25 | 55.59159 | 37.25263 | 638 ft | 20 kts | 249° |
| 2025-10-06 09:26 | 55.59069 | 37.24887 | 645 ft | 12 kts | 249° |
| 2025-10-06 09:26 | 55.59041 | 37.24760 | 646 ft | 10 kts | 248° |
| 2025-10-06 09:27 | 55.58964 | 37.24438 | 635 ft | 17 kts | 243° |
| 2025-10-06 09:27 | 55.58817 | 37.23945 | 624 ft | 16 kts | 243° |
| 2025-10-06 09:28 | 55.58664 | 37.23887 | 623 ft | 6 kts | 152° |
| 2025-10-06 09:28 | 55.58629 | 37.23945 | 624 ft | 7 kts | 107° |
| 2025-10-06 09:29 | 55.58730 | 37.24409 | 628 ft | 72 kts | 67° |
| 2025-10-06 09:29 | 55.59430 | 37.27487 | 1026 ft | 170 kts | 67° |
| 2025-10-06 09:30 | 55.60147 | 37.30676 | 2340 ft | 180 kts | 66° |
| 2025-10-06 09:30 | 55.61305 | 37.35789 | 3543 ft | 213 kts | 65° |
| 2025-10-06 09:31 | 55.61416 | 37.41252 | 4679 ft | 245 kts | 116° |
| 2025-10-06 09:31 | 55.60347 | 37.43618 | 5332 ft | 255 kts | 134° |
| 2025-10-06 09:32 | 55.53599 | 37.43409 | 7907 ft | 278 kts | 225° |
| 2025-10-06 09:32 | 55.52381 | 37.40828 | 7991 ft | 276 kts | 230° |
| 2025-10-06 09:33 | 55.48280 | 37.36076 | 7994 ft | 272 kts | 184° |
| 2025-10-06 09:33 | 55.45798 | 37.36570 | 7997 ft | 278 kts | 161° |
| 2025-10-06 09:34 | 55.42795 | 37.40813 | 7997 ft | 282 kts | 127° |
| 2025-10-06 09:34 | 55.40346 | 37.46159 | 7995 ft | 282 kts | 128° |
| 2025-10-06 09:35 | 55.37861 | 37.51490 | 7994 ft | 283 kts | 128° |
| 2025-10-06 09:35 | 55.35097 | 37.56411 | 8167 ft | 296 kts | 142° |
| 2025-10-06 09:36 | 55.30154 | 37.62627 | 8992 ft | 287 kts | 142° |
| 2025-10-06 09:37 | 55.26951 | 37.66702 | 9001 ft | 287 kts | 143° |
| 2025-10-06 09:37 | 55.25291 | 37.68842 | 9649 ft | 294 kts | 143° |
| 2025-10-06 09:37 | 55.21993 | 37.73021 | 11083 ft | 306 kts | 143° |
| 2025-10-06 09:38 | 55.18453 | 37.77514 | 12380 ft | 324 kts | 144° |
| 2025-10-06 09:38 | 55.15022 | 37.82700 | 12980 ft | 329 kts | 131° |
| 2025-10-06 09:39 | 55.11933 | 37.88419 | 12990 ft | 320 kts | 133° |
| 2025-10-06 09:39 | 55.08814 | 37.94099 | 13281 ft | 335 kts | 132° |
| 2025-10-06 09:40 | 55.04504 | 38.01771 | 15443 ft | 343 kts | 134° |
| 2025-10-06 09:41 | 55.00603 | 38.08892 | 17140 ft | 353 kts | 135° |
| 2025-10-06 09:41 | 54.98891 | 38.11944 | 17849 ft | 356 kts | 135° |
| 2025-10-06 09:41 | 54.95425 | 38.18142 | 18936 ft | 370 kts | 135° |
| 2025-10-06 09:42 | 54.91834 | 38.24558 | 18996 ft | 367 kts | 135° |
| 2025-10-06 09:42 | 54.88269 | 38.30867 | 18999 ft | 365 kts | 135° |
| 2025-10-06 09:43 | 54.85479 | 38.36293 | 18997 ft | 366 kts | 128° |
| 2025-10-06 09:43 | 54.82328 | 38.45165 | 20176 ft | 377 kts | 120° |
| 2025-10-06 09:44 | 54.78366 | 38.57313 | 20989 ft | 392 kts | 121° |
| 2025-10-06 09:45 | 54.75064 | 38.64511 | 20994 ft | 389 kts | 141° |
| 2025-10-06 09:45 | 54.72853 | 38.67291 | 21180 ft | 403 kts | 150° |
| 2025-10-06 09:45 | 54.68784 | 38.71599 | 21594 ft | 426 kts | 153° |
| 2025-10-06 09:46 | 54.62757 | 38.77809 | 22562 ft | 446 kts | 153° |
| 2025-10-06 09:46 | 54.57469 | 38.83274 | 23576 ft | 456 kts | 154° |
| 2025-10-06 09:47 | 54.52037 | 38.88892 | 24710 ft | 464 kts | 154° |
| 2025-10-06 09:48 | 54.37068 | 39.10433 | 27826 ft | 501 kts | 121° |
| 2025-10-06 09:50 | 54.26171 | 39.54818 | 32089 ft | 504 kts | 114° |
| 2025-10-06 09:52 | 54.15442 | 39.98257 | 35511 ft | 490 kts | 115° |
| 2025-10-06 09:54 | 54.06657 | 40.42183 | 37031 ft | 486 kts | 108° |
| 2025-10-06 09:56 | 53.98932 | 40.86008 | 37019 ft | 488 kts | 109° |
| 2025-10-06 09:58 | 53.91360 | 41.30269 | 37035 ft | 491 kts | 107° |
| 2025-10-06 10:00 | 53.83960 | 41.74599 | 37046 ft | 489 kts | 108° |
| 2025-10-06 10:02 | 53.77324 | 42.13146 | 37027 ft | 491 kts | 108° |
| 2025-10-06 10:04 | 53.68749 | 42.62317 | 37032 ft | 489 kts | 103° |
| 2025-10-06 10:06 | 53.69633 | 43.08069 | 37025 ft | 498 kts | 85° |
| 2025-10-06 10:08 | 53.71722 | 43.53832 | 37036 ft | 490 kts | 85° |
| 2025-10-06 10:10 | 53.73611 | 43.99640 | 37043 ft | 491 kts | 86° |
| 2025-10-06 10:12 | 53.75312 | 44.45385 | 37028 ft | 486 kts | 88° |
| 2025-10-06 10:14 | 53.76025 | 44.85334 | 37063 ft | 486 kts | 90° |
| 2025-10-06 10:16 | 53.76788 | 45.36451 | 37069 ft | 487 kts | 90° |
| 2025-10-06 10:18 | 53.77290 | 45.76335 | 37065 ft | 486 kts | 90° |
| 2025-10-06 10:20 | 53.77734 | 46.27099 | 37078 ft | 486 kts | 89° |
| 2025-10-06 10:22 | 53.77929 | 46.65204 | 37066 ft | 487 kts | 91° |
| 2025-10-06 10:24 | 53.78030 | 47.18336 | 36809 ft | 486 kts | 89° |
| 2025-10-06 10:26 | 53.80639 | 47.58088 | 32453 ft | 487 kts | 84° |
| 2025-10-06 10:28 | 53.81685 | 48.07717 | 26550 ft | 454 kts | 98° |
| 2025-10-06 10:29 | 53.80411 | 48.28291 | 23708 ft | 435 kts | 99° |
| 2025-10-06 10:30 | 53.80093 | 48.33285 | 23088 ft | 428 kts | 98° |
| 2025-10-06 10:30 | 53.79493 | 48.42930 | 21871 ft | 415 kts | 98° |
| 2025-10-06 10:31 | 53.78889 | 48.52504 | 20579 ft | 403 kts | 98° |
| 2025-10-06 10:31 | 53.78014 | 48.66123 | 18464 ft | 384 kts | 99° |
| 2025-10-06 10:32 | 53.77445 | 48.74809 | 16983 ft | 375 kts | 99° |
| 2025-10-06 10:32 | 53.76895 | 48.83102 | 15543 ft | 366 kts | 100° |
| 2025-10-06 10:33 | 53.76420 | 48.89841 | 14340 ft | 358 kts | 101° |
| 2025-10-06 10:33 | 53.75619 | 48.99377 | 12663 ft | 347 kts | 102° |
| 2025-10-06 10:34 | 53.75286 | 49.03322 | 12082 ft | 340 kts | 102° |
| 2025-10-06 10:34 | 53.74617 | 49.11214 | 11006 ft | 345 kts | 101° |
| 2025-10-06 10:35 | 53.73972 | 49.18907 | 10567 ft | 320 kts | 101° |
| 2025-10-06 10:35 | 53.73085 | 49.29353 | 9979 ft | 291 kts | 102° |
| 2025-10-06 10:36 | 53.72227 | 49.39275 | 8893 ft | 284 kts | 102° |
| 2025-10-06 10:37 | 53.71668 | 49.45733 | 8205 ft | 278 kts | 103° |
| 2025-10-06 10:37 | 53.71387 | 49.48947 | 7860 ft | 275 kts | 103° |
| 2025-10-06 10:37 | 53.70836 | 49.55270 | 7186 ft | 270 kts | 103° |
| 2025-10-06 10:38 | 53.70383 | 49.60414 | 6631 ft | 266 kts | 103° |
| 2025-10-06 10:38 | 53.69759 | 49.67483 | 6153 ft | 252 kts | 104° |
| 2025-10-06 10:39 | 53.69233 | 49.73344 | 6043 ft | 251 kts | 104° |
| 2025-10-06 10:39 | 53.68721 | 49.79075 | 5470 ft | 246 kts | 104° |
| 2025-10-06 10:40 | 53.67955 | 49.87529 | 4407 ft | 244 kts | 103° |
| 2025-10-06 10:41 | 53.67687 | 49.92945 | 4143 ft | 223 kts | 95° |
| 2025-10-06 10:41 | 53.67692 | 49.95505 | 4007 ft | 214 kts | 95° |
| 2025-10-06 10:41 | 53.67676 | 50.00387 | 3573 ft | 203 kts | 96° |
| 2025-10-06 10:42 | 53.67623 | 50.04990 | 3149 ft | 189 kts | 103° |
| 2025-10-06 10:42 | 53.66172 | 50.07920 | 2973 ft | 166 kts | 160° |
| 2025-10-06 10:43 | 53.64053 | 50.09511 | 2810 ft | 155 kts | 160° |
| 2025-10-06 10:43 | 53.62513 | 50.10462 | 2471 ft | 134 kts | 160° |
| 2025-10-06 10:44 | 53.59878 | 50.12052 | 2014 ft | 133 kts | 161° |
| 2025-10-06 10:44 | 53.58997 | 50.12580 | 1849 ft | 133 kts | 160° |
| 2025-10-06 10:45 | 53.57262 | 50.13625 | 1522 ft | 133 kts | 160° |
| 2025-10-06 10:45 | 53.55484 | 50.14645 | 1142 ft | 135 kts | 160° |
| 2025-10-06 10:46 | 53.53750 | 50.15743 | 850 ft | 132 kts | 159° |
| 2025-10-06 10:46 | 53.52006 | 50.16755 | 581 ft | 132 kts | 160° |
| 2025-10-06 10:47 | 53.50579 | 50.17590 | 485 ft | 55 kts | 160° |
| 2025-10-06 10:48 | 53.50113 | 50.17837 | 485 ft | 10 kts | 204° |
| 2025-10-06 10:48 | 53.50053 | 50.17635 | 485 ft | 9 kts | 248° |
| 2025-10-06 10:48 | 53.50031 | 50.17538 | 485 ft | 8 kts | 266° |
| 2025-10-06 10:49 | 53.50142 | 50.17435 | 485 ft | 9 kts | 340° |
| 2025-10-06 10:49 | 53.50264 | 50.17363 | 485 ft | 8 kts | 341° |
| 2025-10-06 10:50 | 53.50375 | 50.17301 | 485 ft | 7 kts | 341° |
| 2025-10-06 10:50 | 53.50483 | 50.17238 | 485 ft | 11 kts | 340° |
| 2025-10-06 10:51 | 53.50644 | 50.17142 | 485 ft | 12 kts | 340° |
| 2025-10-06 10:52 | 53.50878 | 50.17004 | 485 ft | 11 kts | 340° |
| 2025-10-06 10:52 | 53.51024 | 50.16920 | 485 ft | 10 kts | 341° |
| 2025-10-06 10:52 | 53.51093 | 50.16879 | 485 ft | 10 kts | 341° |
| 2025-10-06 10:53 | 53.51230 | 50.16798 | 485 ft | 9 kts | 340° |
| 2025-10-06 10:53 | 53.51322 | 50.16679 | 485 ft | 8 kts | 259° |
| 2025-10-06 10:54 | 53.51261 | 50.16470 | 485 ft | 11 kts | 242° |
| 2025-10-06 10:54 | 53.51194 | 50.16254 | 485 ft | 9 kts | 241° |
| 2025-10-06 10:55 | 53.51163 | 50.16157 | 485 ft | 8 kts | 243° |
| 2025-10-06 10:55 | 53.51147 | 50.16066 | 485 ft | 3 kts | 301° |
| 2025-10-06 10:56 | 53.51196 | 50.16015 | 485 ft | 0 kts | 333° |
| 2025-10-06 10:56 | 53.51198 | 50.16013 | 485 ft | 0 kts | 333° |